Time;durP1;ratioP1;P1;durP2;ratioP2;P2;SDS_P1;SDS_P2;PMS_P1;PMS_P2;Temp;Humidity;BMP_temperature;BMP_pressure;BME280_temperature;BME280_humidity;BME280_pressure;Samples;Min_cycle;Max_cycle;Signal;HPM_P1;HPM_P2
2021/09/11 00:00:52;;;;;;;28.35;15.88;;;17.20;99.90;;;;;;4960643;28;20102;-93
2021/09/11 00:03:17;;;;;;;21.58;12.55;;;17.20;99.90;;;;;;4966654;28;20498;-92
2021/09/11 00:05:43;;;;;;;24.58;14.57;;;17.20;99.90;;;;;;4958403;28;20162;-91
2021/09/11 00:08:09;;;;;;;28.33;15.00;;;17.20;99.90;;;;;;4960820;28;20235;-91
2021/09/11 00:10:36;;;;;;;28.30;14.60;;;17.20;99.90;;;;;;4957890;28;20117;-91
2021/09/11 00:13:02;;;;;;;22.77;13.73;;;17.20;99.90;;;;;;4957775;28;20039;-92
2021/09/11 00:15:31;;;;;;;26.00;14.23;;;17.20;99.90;;;;;;4958091;28;20045;-91
2021/09/11 00:18:02;;;;;;;19.75;13.98;;;17.30;99.90;;;;;;4950156;28;20527;-92
2021/09/11 00:20:29;;;;;;;20.42;13.10;;;17.20;99.90;;;;;;4958182;28;20054;-91
2021/09/11 00:22:56;;;;;;;22.55;12.82;;;17.30;99.90;;;;;;4957872;28;20031;-93
2021/09/11 00:25:22;;;;;;;25.95;14.20;;;17.30;99.90;;;;;;4957813;28;20078;-92
2021/09/11 00:27:48;;;;;;;19.85;11.93;;;17.30;99.90;;;;;;4957783;28;20029;-91
2021/09/11 00:30:14;;;;;;;20.70;12.20;;;17.30;99.90;;;;;;4958021;28;20035;-91
2021/09/11 00:32:43;;;;;;;22.33;13.45;;;17.30;99.90;;;;;;4958031;28;20035;-91
2021/09/11 00:35:14;;;;;;;24.60;13.98;;;17.30;99.90;;;;;;4957855;28;20023;-92
2021/09/11 00:37:40;;;;;;;;;;;17.30;99.90;;;;;;4958164;28;20031;-92
2021/09/11 00:40:06;;;;;;;29.83;14.18;;;17.30;99.90;;;;;;4959920;28;19910;-92
2021/09/11 00:42:32;;;;;;;27.38;15.32;;;17.30;99.90;;;;;;4966677;28;20030;-92
2021/09/11 00:44:57;;;;;;;27.85;17.05;;;17.30;99.90;;;;;;4968343;28;20035;-92
2021/09/11 00:47:23;;;;;;;25.90;14.52;;;17.30;99.90;;;;;;4971044;28;20023;-92
2021/09/11 00:49:49;;;;;;;27.17;16.85;;;17.30;99.90;;;;;;4971559;28;20118;-91
2021/09/11 00:52:14;;;;;;;24.92;15.52;;;17.30;99.90;;;;;;4975876;28;20058;-92
2021/09/11 00:54:40;;;;;;;27.45;16.17;;;17.30;99.90;;;;;;4973836;28;20066;-92
2021/09/11 00:57:07;;;;;;;35.45;21.02;;;17.30;99.90;;;;;;4965500;28;20033;-92
2021/09/11 00:59:32;;;;;;;36.35;21.27;;;17.30;99.90;;;;;;4961555;28;20484;-92
2021/09/11 01:01:58;;;;;;;37.05;20.05;;;17.40;99.90;;;;;;4960643;28;20129;-91
2021/09/11 01:04:27;;;;;;;22.70;16.10;;;17.40;99.90;;;;;;4960282;28;20018;-92
2021/09/11 01:06:53;;;;;;;28.75;17.17;;;17.40;99.90;;;;;;4959217;28;20026;-93
2021/09/11 01:09:19;;;;;;;32.50;19.00;;;17.40;99.90;;;;;;4953278;28;20107;-91
2021/09/11 01:11:45;;;;;;;23.83;15.35;;;17.40;99.90;;;;;;4958896;29;20126;-91
2021/09/11 01:14:10;;;;;;;26.98;17.85;;;17.40;99.90;;;;;;4949785;29;20032;-92
2021/09/11 01:16:36;;;;;;;24.10;17.50;;;17.40;99.90;;;;;;4943086;29;20571;-92
2021/09/11 01:19:02;;;;;;;27.85;19.13;;;17.40;99.90;;;;;;4943054;29;20023;-92
2021/09/11 01:21:27;;;;;;;28.75;20.10;;;17.40;99.90;;;;;;4942947;29;20035;-93
2021/09/11 01:23:53;;;;;;;24.85;15.40;;;17.40;99.90;;;;;;4942706;29;20039;-92
2021/09/11 01:26:18;;;;;;;28.60;18.83;;;17.40;99.90;;;;;;4943217;29;20027;-92
2021/09/11 01:28:44;;;;;;;25.58;18.90;;;17.40;99.90;;;;;;4943075;29;20023;-93
2021/09/11 01:31:10;;;;;;;29.13;18.73;;;17.40;99.90;;;;;;4942486;29;20027;-94
2021/09/11 01:33:35;;;;;;;22.10;17.02;;;17.40;99.90;;;;;;4940860;29;20448;-92
2021/09/11 01:36:01;;;;;;;24.83;18.08;;;17.40;99.90;;;;;;4940985;29;20023;-92
2021/09/11 01:38:27;;;;;;;26.83;19.15;;;17.40;99.90;;;;;;4941036;29;20043;-91
2021/09/11 01:40:52;;;;;;;24.52;18.20;;;17.40;99.90;;;;;;4941102;29;20123;-92
2021/09/11 01:43:29;;;;;;;23.80;17.85;;;17.40;99.90;;;;;;4941072;29;20125;-96
2021/09/11 01:45:55;;;;;;;20.25;15.75;;;17.40;99.90;;;;;;4940651;29;20242;-94
2021/09/11 01:48:21;;;;;;;26.08;17.65;;;17.40;99.90;;;;;;4940760;29;20027;-93
2021/09/11 01:50:47;;;;;;;27.25;17.70;;;17.40;99.90;;;;;;4940634;29;20069;-93
2021/09/11 01:53:14;;;;;;;26.55;18.10;;;17.40;99.90;;;;;;4940785;29;20122;-94
2021/09/11 01:55:39;;;;;;;28.63;19.52;;;17.40;99.90;;;;;;4940705;29;20027;-93
2021/09/11 01:58:05;;;;;;;25.77;18.92;;;17.40;99.90;;;;;;4940485;29;20038;-93
2021/09/11 02:00:31;;;;;;;31.17;21.25;;;17.30;99.90;;;;;;4941115;29;20035;-94
2021/09/11 02:02:57;;;;;;;31.10;20.13;;;17.40;99.90;;;;;;4940823;29;20097;-94
2021/09/11 02:05:23;;;;;;;24.95;17.38;;;17.40;99.90;;;;;;4940992;29;20082;-95
2021/09/11 02:07:48;;;;;;;30.08;19.67;;;17.40;99.90;;;;;;4940680;29;20051;-94
2021/09/11 02:10:17;;;;;;;33.38;20.20;;;17.40;99.90;;;;;;4939749;28;20069;-95
2021/09/11 02:12:43;;;;;;;26.00;17.80;;;17.30;99.90;;;;;;4940060;29;20085;-95
2021/09/11 02:15:10;;;;;;;26.83;17.80;;;17.30;99.90;;;;;;4940108;29;20031;-94
2021/09/11 02:17:36;;;;;;;29.63;16.52;;;17.30;99.90;;;;;;4939564;29;20035;-94
2021/09/11 02:20:03;;;;;;;24.58;18.20;;;17.30;99.90;;;;;;4940096;29;20033;-94
2021/09/11 02:22:29;;;;;;;23.27;17.08;;;17.30;99.90;;;;;;4940185;29;20129;-94
2021/09/11 02:24:54;;;;;;;22.00;15.48;;;17.30;99.90;;;;;;4957332;29;20501;-93
2021/09/11 02:27:21;;;;;;;23.85;16.60;;;17.30;99.90;;;;;;4940127;29;20389;-95
2021/09/11 02:29:46;;;;;;;25.80;17.30;;;17.30;99.90;;;;;;4940949;29;20035;-96
2021/09/11 02:32:13;;;;;;;22.88;15.98;;;17.30;99.90;;;;;;4939772;29;20043;-92
2021/09/11 02:34:39;;;;;;;20.50;14.68;;;17.30;99.90;;;;;;4940723;29;20024;-94
2021/09/11 02:37:06;;;;;;;21.90;14.85;;;17.30;99.90;;;;;;4941818;29;20042;-93
2021/09/11 02:39:31;;;;;;;24.00;15.07;;;17.30;99.90;;;;;;4945185;29;20544;-94
2021/09/11 02:41:57;;;;;;;24.27;15.90;;;17.30;99.90;;;;;;4955007;29;20031;-94
2021/09/11 02:44:23;;;;;;;23.33;14.60;;;17.30;99.90;;;;;;4940792;29;20058;-95
2021/09/11 02:46:49;;;;;;;20.25;13.75;;;17.30;99.90;;;;;;4940623;29;20027;-95
2021/09/11 02:49:15;;;;;;;19.02;13.43;;;17.20;99.90;;;;;;4940726;29;20103;-94
2021/09/11 02:51:40;;;;;;;16.10;11.68;;;17.20;99.90;;;;;;4941672;29;20039;-95
2021/09/11 02:54:06;;;;;;;23.08;13.40;;;17.20;99.90;;;;;;4940511;29;20023;-95
2021/09/11 02:56:32;;;;;;;20.70;13.23;;;17.20;99.90;;;;;;4940185;29;20027;-95
2021/09/11 02:58:58;;;;;;;17.73;12.73;;;17.10;99.90;;;;;;4940272;29;20396;-95
2021/09/11 03:01:24;;;;;;;20.50;11.88;;;17.10;99.90;;;;;;4939676;29;20043;-93
2021/09/11 03:03:50;;;;;;;16.15;11.88;;;17.20;99.90;;;;;;4940202;29;20134;-94
2021/09/11 03:06:16;;;;;;;17.88;11.95;;;17.10;99.90;;;;;;4940075;29;20039;-93
2021/09/11 03:08:41;;;;;;;19.38;12.30;;;17.10;99.90;;;;;;4939806;28;20031;-93
2021/09/11 03:11:07;;;;;;;15.90;10.90;;;17.10;99.90;;;;;;4939979;29;20037;-95
2021/09/11 03:13:33;;;;;;;16.50;10.30;;;17.10;99.90;;;;;;4939663;29;20069;-94
2021/09/11 03:15:59;;;;;;;18.27;11.45;;;17.10;99.90;;;;;;4939437;29;20128;-95
2021/09/11 03:18:24;;;;;;;18.30;10.77;;;17.10;99.90;;;;;;4939549;29;20032;-94
2021/09/11 03:20:51;;;;;;;17.58;9.70;;;17.10;99.90;;;;;;4939597;29;20027;-94
2021/09/11 03:23:17;;;;;;;13.23;9.27;;;17.10;99.90;;;;;;4939971;29;20062;-94
2021/09/11 03:25:43;;;;;;;17.45;11.23;;;17.10;99.90;;;;;;4940098;29;20381;-94
2021/09/11 03:28:09;;;;;;;12.15;8.60;;;17.00;99.90;;;;;;4939958;29;20043;-95
2021/09/11 03:30:35;;;;;;;14.18;9.52;;;17.00;99.90;;;;;;4939292;29;20031;-95
2021/09/11 03:33:01;;;;;;;16.92;11.27;;;17.00;99.90;;;;;;4924676;28;20386;-94
2021/09/11 03:35:27;;;;;;;12.27;8.77;;;17.00;99.90;;;;;;4951544;29;20031;-93
2021/09/11 03:37:53;;;;;;;11.35;8.65;;;16.90;99.90;;;;;;4951473;29;20094;-94
2021/09/11 03:40:19;;;;;;;14.98;9.45;;;16.90;99.90;;;;;;4948520;29;20031;-94
2021/09/11 03:42:45;;;;;;;13.20;9.30;;;16.90;99.90;;;;;;4946616;29;20027;-94
2021/09/11 03:45:11;;;;;;;15.57;8.60;;;16.90;99.90;;;;;;4944378;29;20031;-94
2021/09/11 03:47:37;;;;;;;12.50;8.85;;;16.80;99.90;;;;;;4939416;29;20034;-93
2021/09/11 03:50:04;;;;;;;13.95;9.63;;;16.80;99.90;;;;;;4939745;29;20023;-93
2021/09/11 03:52:30;;;;;;;15.75;9.15;;;16.80;99.90;;;;;;4939074;29;20050;-94
2021/09/11 03:54:55;;;;;;;12.80;9.68;;;16.80;99.90;;;;;;4939487;29;20027;-92
2021/09/11 03:57:21;;;;;;;8.40;6.43;;;16.80;99.90;;;;;;4939060;29;20042;-94
2021/09/11 03:59:47;;;;;;;9.80;7.30;;;16.80;99.90;;;;;;4938859;29;20110;-95
2021/09/11 04:02:12;;;;;;;9.77;7.18;;;16.80;99.90;;;;;;4938424;29;20035;-93
2021/09/11 04:04:38;;;;;;;13.50;7.95;;;16.80;99.90;;;;;;4939059;29;20023;-94
2021/09/11 04:07:04;;;;;;;10.02;7.10;;;16.80;99.90;;;;;;4938658;29;20497;-94
2021/09/11 04:09:29;;;;;;;11.48;7.68;;;16.80;99.90;;;;;;4938906;28;20047;-93
2021/09/11 04:11:55;;;;;;;11.20;7.57;;;16.80;99.90;;;;;;4953722;29;20097;-94
2021/09/11 04:14:21;;;;;;;9.32;7.38;;;16.80;99.90;;;;;;4939335;29;20034;-94
2021/09/11 04:16:46;;;;;;;9.10;7.47;;;16.80;99.90;;;;;;4939016;29;20036;-93
2021/09/11 04:19:12;;;;;;;9.77;7.03;;;16.80;99.90;;;;;;4938595;29;20031;-93
2021/09/11 04:21:38;;;;;;;10.02;6.18;;;16.80;99.90;;;;;;4938450;29;20031;-93
2021/09/11 04:24:05;;;;;;;15.68;6.78;;;16.80;99.90;;;;;;4938523;29;20098;-93
2021/09/11 04:26:32;;;;;;;9.85;6.22;;;16.80;99.90;;;;;;4938664;29;20027;-92
2021/09/11 04:28:58;;;;;;;7.70;6.20;;;16.80;99.90;;;;;;4938786;29;20412;-94
2021/09/11 04:31:24;;;;;;;7.63;5.70;;;16.70;99.90;;;;;;4938654;29;20039;-91
2021/09/11 04:33:50;;;;;;;7.15;6.22;;;16.70;99.90;;;;;;4938189;29;20031;-94
2021/09/11 04:36:16;;;;;;;10.07;6.38;;;16.70;99.90;;;;;;4938580;29;20397;-93
2021/09/11 04:38:41;;;;;;;174.77;135.35;;;16.70;99.90;;;;;;4938337;29;20042;-95
2021/09/11 04:41:08;;;;;;;15.85;14.18;;;16.70;99.90;;;;;;4941354;29;20027;-94
2021/09/11 04:43:34;;;;;;;11.80;6.07;;;16.70;99.90;;;;;;4938594;29;20034;-94
2021/09/11 04:46:01;;;;;;;7.45;5.88;;;16.70;99.90;;;;;;4938579;29;20050;-95
2021/09/11 04:48:26;;;;;;;7.80;5.15;;;16.70;99.90;;;;;;4941855;29;20032;-94
2021/09/11 04:50:52;;;;;;;9.07;5.20;;;16.70;99.90;;;;;;4941986;29;20034;-94
2021/09/11 04:53:18;;;;;;;5.65;4.55;;;16.60;99.90;;;;;;4941873;29;20072;-93
2021/09/11 04:55:44;;;;;;;8.48;4.75;;;16.60;99.90;;;;;;4941873;29;20043;-93
2021/09/11 04:58:10;;;;;;;6.30;4.68;;;16.60;99.90;;;;;;4941359;29;20027;-93
2021/09/11 05:00:36;;;;;;;6.43;4.63;;;16.60;99.90;;;;;;4941662;29;20030;-94
2021/09/11 05:03:01;;;;;;;5.75;4.88;;;16.60;99.90;;;;;;4941467;29;20087;-94
2021/09/11 05:05:27;;;;;;;9.18;4.60;;;16.60;99.90;;;;;;4941383;29;20035;-95
2021/09/11 05:07:57;;;;;;;5.95;4.65;;;16.60;99.90;;;;;;4941894;29;20513;-94
2021/09/11 05:10:23;;;;;;;6.97;4.97;;;16.50;99.90;;;;;;4941277;28;20137;-94
2021/09/11 05:12:49;;;;;;;5.93;4.70;;;16.50;99.90;;;;;;4941013;29;20150;-94
2021/09/11 05:15:15;;;;;;;7.90;4.63;;;16.50;99.90;;;;;;4940914;29;20031;-93
2021/09/11 05:17:43;;;;;;;6.60;4.85;;;16.40;99.90;;;;;;4940962;29;20515;-95
2021/09/11 05:20:10;;;;;;;6.00;4.32;;;16.40;99.90;;;;;;4941220;29;20054;-95
2021/09/11 05:22:35;;;;;;;7.18;4.88;;;16.40;99.90;;;;;;4941382;29;20040;-95
2021/09/11 05:25:01;;;;;;;5.63;4.47;;;16.30;99.90;;;;;;4941560;29;20027;-94
2021/09/11 05:27:27;;;;;;;6.78;4.15;;;16.30;99.90;;;;;;4941011;29;20068;-95
2021/09/11 05:29:52;;;;;;;6.10;4.53;;;16.30;99.90;;;;;;4940907;29;20035;-95
2021/09/11 05:37:16;;;;;;;7.73;4.43;;;16.30;99.90;;;;;;4967675;28;20047;-93
2021/09/11 05:39:42;;;;;;;5.07;3.92;;;16.30;99.90;;;;;;4927570;29;20034;-93
2021/09/11 05:42:08;;;;;;;6.53;4.40;;;16.30;99.90;;;;;;4924590;29;20043;-93
2021/09/11 05:44:34;;;;;;;7.82;4.28;;;16.30;99.90;;;;;;4927671;29;20028;-92
2021/09/11 05:47:00;;;;;;;5.72;4.18;;;16.30;99.90;;;;;;4923360;29;20047;-93
2021/09/11 05:49:26;;;;;;;5.38;3.92;;;16.30;99.90;;;;;;4937596;29;20497;-93
2021/09/11 05:51:53;;;;;;;5.45;4.30;;;16.30;99.90;;;;;;4921944;29;20039;-93
2021/09/11 05:54:18;;;;;;;6.57;4.18;;;16.20;99.90;;;;;;4921482;29;20028;-94
2021/09/11 05:56:44;;;;;;;7.53;4.28;;;16.20;99.90;;;;;;4920988;29;20034;-93
2021/09/11 05:59:10;;;;;;;4.93;3.58;;;16.20;99.90;;;;;;4921582;29;20496;-93
2021/09/11 06:01:36;;;;;;;4.78;3.83;;;16.20;99.90;;;;;;4923932;29;20470;-94
2021/09/11 06:04:02;;;;;;;5.88;3.50;;;16.20;99.90;;;;;;4928551;29;20485;-93
2021/09/11 06:06:28;;;;;;;5.95;3.90;;;16.10;99.90;;;;;;4928492;29;20020;-94
2021/09/11 06:08:54;;;;;;;6.00;3.90;;;16.10;99.90;;;;;;4928353;29;20028;-94
2021/09/11 06:11:20;;;;;;;6.28;3.88;;;16.10;99.90;;;;;;4927887;29;20118;-94
2021/09/11 06:13:46;;;;;;;6.53;3.83;;;16.10;99.90;;;;;;4931182;29;20038;-93
2021/09/11 06:16:11;;;;;;;4.68;3.63;;;16.10;99.90;;;;;;4928582;29;20106;-95
2021/09/11 06:18:37;;;;;;;5.07;3.65;;;16.10;99.90;;;;;;4929876;29;20425;-94
2021/09/11 06:21:03;;;;;;;4.32;3.42;;;16.10;99.90;;;;;;4928559;29;20590;-94
2021/09/11 06:23:29;;;;;;;6.25;4.30;;;16.10;99.90;;;;;;4926535;29;20418;-94
2021/09/11 06:25:54;;;;;;;6.55;4.45;;;16.10;99.90;;;;;;4930935;29;20023;-93
2021/09/11 06:28:23;;;;;;;4.97;3.70;;;16.10;99.90;;;;;;4929248;29;20031;-93
2021/09/11 06:30:49;;;;;;;4.97;3.97;;;16.10;99.90;;;;;;4928787;29;20062;-94
2021/09/11 06:33:15;;;;;;;4.78;4.00;;;16.10;99.90;;;;;;4931296;29;20067;-93
2021/09/11 06:35:40;;;;;;;5.60;4.00;;;16.10;99.90;;;;;;4930722;29;20185;-94
2021/09/11 06:38:06;;;;;;;5.30;3.72;;;16.10;99.90;;;;;;4931288;29;20031;-93
2021/09/11 06:40:32;;;;;;;8.15;4.10;;;16.10;99.90;;;;;;4928154;29;20026;-93
2021/09/11 06:42:57;;;;;;;5.88;4.20;;;16.20;99.90;;;;;;4931046;29;20103;-94
2021/09/11 06:45:23;;;;;;;5.68;4.18;;;16.20;99.90;;;;;;4926828;29;20114;-93
2021/09/11 06:47:49;;;;;;;5.93;3.58;;;16.20;99.90;;;;;;4927521;29;20618;-94
2021/09/11 06:50:14;;;;;;;5.18;3.25;;;16.20;99.90;;;;;;4929866;29;20019;-93
2021/09/11 06:52:40;;;;;;;4.43;3.67;;;16.20;99.90;;;;;;4929091;29;20043;-92
2021/09/11 06:55:06;;;;;;;4.38;3.50;;;16.20;99.90;;;;;;4927669;29;20470;-94
2021/09/11 06:57:32;;;;;;;6.28;3.20;;;16.20;99.90;;;;;;4930605;29;20466;-93
2021/09/11 06:59:58;;;;;;;5.13;3.08;;;16.20;99.90;;;;;;4926827;29;20082;-93
2021/09/11 07:02:24;;;;;;;5.10;3.13;;;16.20;99.90;;;;;;4927060;29;20082;-94
2021/09/11 07:04:51;;;;;;;3.75;3.30;;;16.20;99.90;;;;;;4930387;29;20061;-93
2021/09/11 07:07:17;;;;;;;7.63;2.90;;;16.30;99.90;;;;;;4926860;29;20433;-93
2021/09/11 07:09:42;;;;;;;3.92;3.08;;;16.30;99.90;;;;;;4926705;29;20034;-92
2021/09/11 07:14:37;;;;;;;5.05;3.70;;;16.30;99.90;;;;;;4938276;23;20056;-93
2021/09/11 07:17:02;;;;;;;4.85;3.50;;;16.30;99.90;;;;;;4908956;29;20040;-92
2021/09/11 07:19:30;;;;;;;13.98;3.60;;;16.40;99.90;;;;;;4913886;29;20070;-91
2021/09/11 07:21:56;;;;;;;5.57;3.50;;;16.40;99.90;;;;;;4910750;29;20024;-93
2021/09/11 07:24:22;;;;;;;5.72;3.53;;;16.50;99.90;;;;;;4902751;29;20422;-92
2021/09/11 07:26:48;;;;;;;5.32;3.05;;;16.50;99.90;;;;;;4920555;29;20029;-93
2021/09/11 07:29:14;;;;;;;5.30;3.20;;;16.50;99.90;;;;;;4915362;29;20039;-93
2021/09/11 07:31:40;;;;;;;4.07;3.33;;;16.50;99.90;;;;;;4923162;29;20044;-93
2021/09/11 07:34:06;;;;;;;5.22;3.08;;;16.60;99.90;;;;;;4941476;29;20087;-92
2021/09/11 07:36:32;;;;;;;6.53;3.45;;;16.60;99.90;;;;;;4923546;29;20051;-93
2021/09/11 07:38:58;;;;;;;4.93;3.28;;;16.60;99.90;;;;;;4922159;29;20024;-91
2021/09/11 07:41:23;;;;;;;4.30;3.28;;;16.70;99.90;;;;;;4922379;29;20034;-93
2021/09/11 07:43:49;;;;;;;6.07;3.05;;;16.60;99.90;;;;;;4922898;29;20024;-93
2021/09/11 07:46:15;;;;;;;5.40;3.60;;;16.70;99.90;;;;;;4922523;29;20119;-94
2021/09/11 07:48:40;;;;;;;8.88;3.30;;;16.70;99.90;;;;;;4922600;29;20370;-93
2021/09/11 07:51:06;;;;;;;3.80;2.90;;;16.70;99.90;;;;;;4921355;29;20067;-94
2021/09/11 07:53:32;;;;;;;3.50;3.20;;;16.70;99.90;;;;;;4920837;29;20059;-93
2021/09/11 07:55:59;;;;;;;7.45;3.38;;;16.80;99.90;;;;;;4920665;29;20020;-94
2021/09/11 07:58:25;;;;;;;3.60;3.30;;;16.80;99.90;;;;;;4920434;29;20057;-95
2021/09/11 08:00:53;;;;;;;7.07;3.60;;;16.80;99.90;;;;;;4920372;29;20042;-95
2021/09/11 08:03:18;;;;;;;6.68;3.55;;;16.70;99.90;;;;;;4920479;29;20020;-93
2021/09/11 08:05:44;;;;;;;4.68;3.75;;;16.80;99.90;;;;;;4920210;29;20558;-94
2021/09/11 08:08:12;;;;;;;5.18;3.50;;;16.80;99.90;;;;;;4920281;29;20028;-94
2021/09/11 08:10:38;;;;;;;6.18;3.55;;;16.80;99.90;;;;;;4920600;29;20023;-96
2021/09/11 08:13:04;;;;;;;4.00;3.47;;;16.80;99.90;;;;;;4920452;29;20068;-95
2021/09/11 08:15:29;;;;;;;4.60;3.70;;;16.90;99.90;;;;;;4920293;29;20056;-94
2021/09/11 08:17:56;;;;;;;6.82;3.70;;;16.90;99.90;;;;;;4920573;29;20388;-93
2021/09/11 08:20:22;;;;;;;5.32;3.30;;;17.00;99.90;;;;;;4922000;29;20035;-94
2021/09/11 08:22:48;;;;;;;8.05;3.50;;;17.00;99.90;;;;;;4924113;29;20051;-94
2021/09/11 08:25:13;;;;;;;4.57;3.30;;;17.00;99.90;;;;;;4925018;29;20043;-94
2021/09/11 08:27:39;;;;;;;5.30;3.63;;;17.10;99.90;;;;;;4924324;29;20032;-94
2021/09/11 08:30:06;;;;;;;4.25;3.50;;;17.10;99.90;;;;;;4924092;29;20126;-94
2021/09/11 08:32:34;;;;;;;6.68;3.70;;;17.10;99.90;;;;;;4924144;29;20044;-95
2021/09/11 08:35:00;;;;;;;10.45;3.30;;;17.10;99.90;;;;;;4924287;29;20122;-93
2021/09/11 08:37:25;;;;;;;5.05;2.92;;;17.00;99.90;;;;;;4924123;29;20075;-95
2021/09/11 08:39:51;;;;;;;5.13;3.53;;;17.10;99.90;;;;;;4926939;29;20071;-95
2021/09/11 08:42:20;;;;;;;5.28;3.17;;;17.10;99.90;;;;;;4925537;29;20032;-94
2021/09/11 08:44:48;;;;;;;3.85;2.45;;;17.10;99.90;;;;;;4927709;29;20043;-95
2021/09/11 08:47:14;;;;;;;3.85;3.00;;;17.10;99.90;;;;;;4931239;29;20568;-95
2021/09/11 08:49:40;;;;;;;7.18;4.00;;;17.10;99.90;;;;;;4926932;29;20031;-96
2021/09/11 08:52:08;;;;;;;7.90;3.42;;;17.10;99.90;;;;;;4925148;29;20036;-95
2021/09/11 08:54:35;;;;;;;5.68;3.72;;;17.10;99.90;;;;;;4930871;29;20115;-96
2021/09/11 08:57:25;;;;;;;5.60;3.20;;;17.10;99.90;;;;;;4932425;29;20086;-96
2021/09/11 08:59:51;;;;;;;4.28;3.17;;;17.10;99.90;;;;;;4932258;29;20051;-95
2021/09/11 09:02:19;;;;;;;7.30;3.10;;;17.10;99.90;;;;;;4930192;29;20117;-96
2021/09/11 09:04:53;;;;;;;4.47;3.00;;;17.10;99.90;;;;;;4932173;29;20030;-95
2021/09/11 09:07:33;;;;;;;3.85;3.08;;;17.00;99.90;;;;;;4930609;29;20035;-96
2021/09/11 09:10:01;;;;;;;3.38;2.92;;;17.00;99.90;;;;;;4932309;29;20054;-95
2021/09/11 09:12:40;;;;;;;4.32;2.90;;;17.00;99.90;;;;;;4932369;29;20035;-94
2021/09/11 09:15:17;;;;;;;5.43;3.28;;;17.00;99.90;;;;;;4930810;29;20047;-96
2021/09/11 09:17:48;;;;;;;4.50;3.00;;;17.00;99.90;;;;;;4932147;29;20107;-95
2021/09/11 09:20:19;;;;;;;3.53;2.83;;;17.10;99.90;;;;;;4928740;29;20027;-95
2021/09/11 09:22:47;;;;;;;3.50;2.42;;;17.20;99.90;;;;;;4929247;29;20046;-95
2021/09/11 09:25:39;;;;;;;4.65;2.95;;;17.20;99.90;;;;;;4928114;29;20023;-94
2021/09/11 09:28:14;;;;;;;4.88;2.70;;;17.20;99.90;;;;;;4885037;29;20033;-94
2021/09/11 09:30:44;;;;;;;4.00;2.53;;;17.30;99.90;;;;;;4877326;29;20025;-96
2021/09/11 09:33:30;;;;;;;4.93;3.03;;;17.30;99.90;;;;;;4893809;29;20192;-94
2021/09/11 09:36:01;;;;;;;5.18;2.70;;;17.30;99.90;;;;;;4885430;29;20053;-94
2021/09/11 09:38:28;;;;;;;5.80;2.92;;;17.30;99.90;;;;;;4890835;29;20037;-94
2021/09/11 09:40:55;;;;;;;3.28;2.65;;;17.30;99.90;;;;;;4894165;29;20045;-96
2021/09/11 09:43:31;;;;;;;3.97;2.72;;;17.40;99.90;;;;;;4881454;29;20072;-95
2021/09/11 09:46:16;;;;;;;6.18;2.85;;;17.40;99.90;;;;;;4896240;29;20040;-96
2021/09/11 09:48:45;;;;;;;3.13;2.60;;;17.50;99.90;;;;;;4894157;29;20025;-95
2021/09/11 09:51:18;;;;;;;3.42;3.13;;;17.60;99.90;;;;;;4892751;29;20044;-94
2021/09/11 09:53:47;;;;;;;3.28;2.60;;;17.60;99.90;;;;;;4868775;29;20509;-94
2021/09/11 09:56:13;;;;;;;5.93;3.10;;;17.70;99.90;;;;;;4892311;29;20228;-95
2021/09/11 09:58:39;;;;;;;3.53;3.08;;;17.70;99.90;;;;;;4892337;29;20051;-95
2021/09/11 10:01:08;;;;;;;5.72;3.10;;;17.70;99.90;;;;;;4882886;29;20083;-94
2021/09/11 10:03:47;;;;;;;3.10;2.40;;;17.70;99.90;;;;;;4879973;29;20123;-94
2021/09/11 10:06:29;;;;;;;4.50;2.60;;;17.70;99.90;;;;;;4922367;29;20056;-95
2021/09/11 10:09:05;;;;;;;3.28;2.10;;;17.70;99.90;;;;;;4924657;29;20031;-95
2021/09/11 10:11:39;;;;;;;3.20;2.20;;;17.80;99.90;;;;;;4926471;29;20047;-94
2021/09/11 10:14:11;;;;;;;3.15;2.40;;;17.80;99.90;;;;;;4917849;29;20023;-94
2021/09/11 10:16:39;;;;;;;3.38;2.22;;;17.80;99.90;;;;;;4908455;29;20501;-95
2021/09/11 10:19:22;;;;;;;3.00;1.88;;;17.90;99.90;;;;;;4906130;29;20051;-95
2021/09/11 10:22:08;;;;;;;3.78;1.95;;;17.90;99.90;;;;;;4908069;29;20024;-95
2021/09/11 10:24:35;;;;;;;3.15;2.20;;;17.90;99.90;;;;;;4896878;29;20025;-94
2021/09/11 10:27:08;;;;;;;3.13;1.92;;;18.00;99.90;;;;;;4892909;29;20028;-94
2021/09/11 10:29:56;;;;;;;3.95;1.90;;;18.10;99.90;;;;;;4896071;29;20028;-93
2021/09/11 10:32:39;;;;;;;6.82;2.08;;;18.20;99.90;;;;;;4889134;29;20233;-94
2021/09/11 10:35:27;;;;;;;1.65;1.52;;;18.30;99.90;;;;;;4888523;29;20024;-94
2021/09/11 10:37:59;;;;;;;4.07;2.10;;;18.30;99.90;;;;;;4883334;29;20048;-94
2021/09/11 10:40:32;;;;;;;3.70;1.85;;;18.40;99.90;;;;;;4888577;29;20475;-92
2021/09/11 10:43:01;;;;;;;2.60;1.88;;;18.40;99.90;;;;;;4902372;29;20024;-92
2021/09/11 10:45:57;;;;;;;4.68;1.80;;;18.40;99.90;;;;;;4902466;29;20115;-93
2021/09/11 10:48:44;;;;;;;1.80;1.70;;;18.50;99.90;;;;;;4902584;29;20036;-93
2021/09/11 10:51:29;;;;;;;2.17;1.80;;;18.50;99.90;;;;;;4902958;29;20042;-94
2021/09/11 10:54:05;;;;;;;5.75;1.77;;;18.50;99.90;;;;;;4903202;29;20033;-92
2021/09/11 10:56:39;;;;;;;1.85;1.70;;;18.50;99.90;;;;;;4894330;29;20024;-92
2021/09/11 10:59:14;;;;;;;2.70;1.83;;;18.60;99.90;;;;;;4887945;29;20056;-92
2021/09/11 11:02:04;;;;;;;2.58;2.17;;;18.60;99.90;;;;;;4888638;29;20093;-92
2021/09/11 11:04:55;;;;;;;7.15;1.85;;;18.60;99.90;;;;;;4891031;29;20028;-93
2021/09/11 11:07:30;;;;;;;4.25;1.92;;;18.70;99.90;;;;;;4886051;29;20028;-92
2021/09/11 11:10:04;;;;;;;3.80;1.80;;;18.70;99.90;;;;;;4886398;29;20044;-93
2021/09/11 11:12:33;;;;;;;3.40;1.58;;;18.80;99.90;;;;;;4897376;29;20122;-92
2021/09/11 11:15:04;;;;;;;7.32;1.77;;;18.90;99.90;;;;;;4894775;29;20085;-92
2021/09/11 11:17:34;;;;;;;3.42;1.70;;;19.00;99.90;;;;;;4884828;29;20025;-93
2021/09/11 11:20:00;;;;;;;1.40;1.30;;;19.20;99.90;;;;;;4879288;29;20040;-93
2021/09/11 11:22:40;;;;;;;2.92;1.35;;;19.20;99.90;;;;;;4877939;29;20037;-91
2021/09/11 11:25:39;;;;;;;2.80;1.73;;;19.30;99.90;;;;;;4883165;29;20035;-91
2021/09/11 11:28:06;;;;;;;4.07;2.53;;;19.40;99.90;;;;;;4883103;29;20036;-92
2021/09/11 11:30:35;;;;;;;1.85;1.52;;;19.40;99.90;;;;;;4883014;29;20032;-91
2021/09/11 11:33:01;;;;;;;1.65;1.55;;;19.50;99.90;;;;;;4883039;29;20036;-90
2021/09/11 11:35:30;;;;;;;2.25;1.60;;;19.60;99.90;;;;;;4883648;29;20115;-90
2021/09/11 11:37:57;;;;;;;3.25;1.50;;;19.80;99.90;;;;;;4884666;29;20025;-91
2021/09/11 11:40:23;;;;;;;2.35;1.38;;;19.80;99.90;;;;;;4873741;29;20550;-91
2021/09/11 11:42:49;;;;;;;3.08;2.00;;;19.80;99.90;;;;;;4888006;29;20029;-90
2021/09/11 11:45:16;;;;;;;2.13;1.70;;;19.90;99.90;;;;;;4884470;29;20028;-90
2021/09/11 11:48:00;;;;;;;3.20;1.70;;;20.00;99.90;;;;;;4876456;29;20037;-91
2021/09/11 11:50:46;;;;;;;6.57;1.88;;;20.20;99.90;;;;;;4874760;29;20021;-91
2021/09/11 11:53:14;;;;;;;2.00;1.20;;;20.40;99.90;;;;;;4872080;29;20092;-88
2021/09/11 11:55:45;;;;;;;2.28;1.38;;;20.70;99.90;;;;;;4870287;29;20052;-93
2021/09/11 11:58:16;;;;;;;1.50;1.17;;;21.00;99.90;;;;;;4870965;29;20028;-92
2021/09/11 12:00:53;;;;;;;1.52;1.27;;;21.30;99.20;;;;;;4874633;29;20040;-92
2021/09/11 12:03:42;;;;;;;1.42;1.20;;;21.50;98.40;;;;;;4864669;29;20036;-93
2021/09/11 12:06:20;;;;;;;1.10;1.00;;;21.70;97.60;;;;;;4882933;29;20024;-93
2021/09/11 12:08:47;;;;;;;2.83;1.02;;;22.10;96.70;;;;;;4884316;29;20025;-93
2021/09/11 12:11:21;;;;;;;1.25;1.15;;;22.40;95.70;;;;;;4890216;29;20035;-91
2021/09/11 12:13:49;;;;;;;2.47;1.30;;;22.70;94.20;;;;;;4888874;29;20077;-92
2021/09/11 12:16:17;;;;;;;2.88;1.30;;;23.00;93.30;;;;;;4902473;29;20140;-92
2021/09/11 12:18:43;;;;;;;1.95;1.30;;;23.10;91.50;;;;;;4903318;29;20028;-94
2021/09/11 12:21:10;;;;;;;1.55;1.15;;;23.10;91.20;;;;;;4903197;29;20131;-93
2021/09/11 12:23:38;;;;;;;1.20;1.10;;;22.90;90.90;;;;;;4903847;29;20112;-92
2021/09/11 12:26:05;;;;;;;2.00;1.35;;;22.70;91.00;;;;;;4902800;29;20083;-92
2021/09/11 12:28:44;;;;;;;3.03;1.65;;;22.50;91.40;;;;;;4903611;29;20028;-95
2021/09/11 12:31:21;;;;;;;2.15;1.60;;;22.30;91.10;;;;;;4897526;29;20029;-92
2021/09/11 12:34:01;;;;;;;3.13;1.40;;;22.10;91.80;;;;;;4893762;29;20368;-93
2021/09/11 12:36:31;;;;;;;3.27;1.60;;;22.10;91.80;;;;;;4904218;29;20032;-91
2021/09/11 12:39:02;;;;;;;2.88;1.50;;;22.10;91.70;;;;;;4906364;29;20024;-92
2021/09/11 12:41:29;;;;;;;2.83;1.40;;;22.10;92.10;;;;;;4906754;29;20039;-93
2021/09/11 12:43:54;;;;;;;2.85;1.90;;;22.10;92.30;;;;;;4905845;29;20032;-91
2021/09/11 12:46:32;;;;;;;2.97;1.40;;;22.10;92.30;;;;;;4902584;29;20195;-92
2021/09/11 12:48:59;;;;;;;3.58;1.60;;;22.00;91.80;;;;;;4901415;29;20020;-92
2021/09/11 12:51:25;;;;;;;2.75;1.45;;;21.90;92.00;;;;;;4902632;29;20036;-92
2021/09/11 12:53:51;;;;;;;3.50;1.80;;;22.00;92.30;;;;;;4902654;29;20058;-91